createdAt,value
2022-09-17T00:02:16.473Z,16.51
2022-09-17T00:04:44.157Z,16.50
2022-09-17T00:07:11.936Z,16.49
2022-09-17T00:09:40.921Z,16.48
2022-09-17T00:12:09.687Z,16.44
2022-09-17T00:14:37.277Z,16.45
2022-09-17T00:17:04.980Z,16.37
2022-09-17T00:19:32.667Z,16.47
2022-09-17T00:22:00.440Z,16.47
2022-09-17T00:24:28.270Z,16.48
2022-09-17T00:26:57.321Z,16.45
2022-09-17T00:29:25.051Z,16.44
2022-09-17T00:31:52.843Z,16.42
2022-09-17T00:34:20.600Z,16.42
2022-09-17T00:36:48.189Z,16.36
2022-09-17T00:39:16.558Z,16.37
2022-09-17T00:41:44.717Z,16.15
2022-09-17T00:44:46.739Z,16.37
2022-09-17T00:47:20.333Z,16.30
2022-09-17T00:49:48.488Z,16.31
2022-09-17T00:52:23.038Z,16.30
2022-09-17T00:54:53.905Z,16.33
2022-09-17T00:57:21.708Z,16.36
2022-09-17T00:59:50.860Z,16.34
2022-09-17T01:02:18.604Z,16.21
2022-09-17T01:04:46.236Z,16.35
2022-09-17T01:07:19.748Z,16.16
2022-09-17T01:09:50.390Z,16.35
2022-09-17T01:12:28.599Z,16.34
2022-09-17T01:15:05.332Z,16.34
2022-09-17T01:17:36.358Z,16.34
2022-09-17T01:20:40.568Z,16.36
2022-09-17T01:23:23.217Z,16.24
2022-09-17T01:25:54.891Z,16.14
2022-09-17T01:28:29.332Z,16.30
2022-09-17T01:31:17.534Z,16.31
2022-09-17T01:33:49.494Z,15.95
2022-09-17T01:36:29.981Z,16.28
2022-09-17T01:39:01.123Z,16.29
2022-09-17T01:41:32.216Z,16.28
2022-09-17T01:44:02.553Z,16.05
2022-09-17T01:46:33.887Z,16.28
2022-09-17T01:49:03.074Z,16.15
2022-09-17T01:51:32.080Z,16.09
2022-09-17T01:54:03.061Z,16.23
2022-09-17T01:56:33.034Z,16.21
2022-09-17T01:59:03.062Z,16.11
2022-09-17T02:01:32.989Z,16.18
2022-09-17T02:04:03.626Z,15.87
2022-09-17T02:06:32.521Z,16.09
2022-09-17T02:09:01.734Z,16.14
2022-09-17T02:11:29.429Z,16.17
2022-09-17T02:13:59.135Z,16.06
2022-09-17T02:16:28.259Z,16.10
2022-09-17T02:18:59.432Z,16.14
2022-09-17T02:21:31.222Z,16.17
2022-09-17T02:24:06.175Z,16.04
2022-09-17T02:26:33.806Z,15.94
2022-09-17T02:29:03.163Z,16.18
2022-09-17T02:31:30.826Z,16.17
2022-09-17T02:34:02.780Z,15.97
2022-09-17T02:36:32.058Z,16.19
2022-09-17T02:39:01.519Z,16.18
2022-09-17T02:41:37.425Z,16.19
2022-09-17T02:44:10.564Z,16.22
2022-09-17T02:46:48.290Z,16.17
2022-09-17T02:49:26.356Z,16.17
2022-09-17T02:51:57.337Z,16.17
2022-09-17T02:54:27.060Z,16.04
2022-09-17T02:56:59.477Z,16.16
2022-09-17T02:59:30.555Z,16.13
2022-09-17T03:02:00.027Z,16.12
2022-09-17T03:04:29.562Z,16.16
2022-09-17T03:06:58.091Z,16.16
2022-09-17T03:09:25.896Z,16.09
2022-09-17T03:11:53.509Z,16.13
2022-09-17T03:14:21.261Z,16.12
2022-09-17T03:16:49.015Z,16.14
2022-09-17T03:19:16.650Z,16.09
2022-09-17T03:21:45.751Z,16.11
2022-09-17T03:24:13.567Z,15.86
2022-09-17T03:26:41.320Z,16.06
2022-09-17T03:29:09.195Z,16.04
2022-09-17T03:31:37.041Z,16.00
2022-09-17T03:34:04.821Z,15.94
2022-09-17T03:36:32.425Z,15.88
2022-09-17T03:39:02.164Z,15.53
2022-09-17T03:41:29.783Z,15.81
2022-09-17T03:43:57.502Z,15.81
2022-09-17T03:46:25.119Z,15.83
2022-09-17T03:48:52.934Z,15.84
2022-09-17T03:51:20.512Z,15.86
2022-09-17T03:53:48.340Z,15.88
2022-09-17T03:56:17.787Z,15.90
2022-09-17T03:58:51.774Z,15.94
2022-09-17T04:01:19.382Z,15.94
2022-09-17T04:03:47.074Z,15.96
2022-09-17T04:06:14.703Z,15.96
2022-09-17T04:08:43.559Z,15.97
2022-09-17T04:11:11.245Z,15.95
2022-09-17T04:13:40.339Z,15.94
2022-09-17T04:16:08.424Z,15.94
2022-09-17T04:18:36.093Z,16.02
2022-09-17T04:21:03.861Z,16.02
2022-09-17T04:23:31.463Z,16.00
2022-09-17T04:25:59.243Z,16.00
2022-09-17T04:28:26.913Z,16.01
2022-09-17T04:30:56.049Z,16.01
2022-09-17T04:33:23.648Z,16.02
2022-09-17T04:35:51.395Z,16.03
2022-09-17T04:40:54.484Z,16.02
2022-09-17T04:43:22.100Z,15.72
2022-09-17T04:45:50.550Z,15.95
2022-09-17T04:48:19.515Z,15.91
2022-09-17T04:50:47.521Z,15.88
2022-09-17T04:53:15.167Z,15.83
2022-09-17T04:55:43.635Z,15.79
2022-09-17T04:58:11.366Z,15.53
2022-09-17T05:00:39.381Z,15.69
2022-09-17T05:03:07.005Z,15.75
2022-09-17T05:05:36.096Z,15.74
2022-09-17T05:08:03.836Z,15.76
2022-09-17T05:10:31.672Z,15.79
2022-09-17T05:12:59.279Z,15.77
2022-09-17T05:15:27.734Z,15.83
2022-09-17T05:17:55.431Z,15.84
2022-09-17T05:20:23.367Z,15.86
2022-09-17T05:22:53.043Z,15.89
2022-09-17T05:25:24.061Z,15.87
2022-09-17T05:27:52.107Z,15.96
2022-09-17T05:30:19.900Z,15.70
2022-09-17T05:32:48.026Z,15.95
2022-09-17T05:35:15.836Z,15.92
2022-09-17T05:37:43.732Z,15.88
2022-09-17T05:40:12.800Z,15.86
2022-09-17T05:42:40.778Z,15.85
2022-09-17T05:45:09.469Z,15.83
2022-09-17T05:47:37.168Z,15.82
2022-09-17T05:50:05.313Z,15.83
2022-09-17T05:52:33.271Z,15.82
2022-09-17T05:55:00.900Z,15.74
2022-09-17T05:57:31.412Z,16.00
2022-09-17T05:59:59.047Z,16.09
2022-09-17T06:02:26.706Z,16.18
2022-09-17T06:04:54.864Z,16.28
2022-09-17T06:07:22.531Z,16.35
2022-09-17T06:09:50.472Z,16.47
2022-09-17T06:12:18.106Z,16.51
2022-09-17T06:14:47.132Z,16.54
2022-09-17T06:17:17.032Z,16.57
2022-09-17T06:19:47.984Z,16.60
2022-09-17T06:22:28.202Z,16.66
2022-09-17T06:24:55.812Z,16.58
2022-09-17T06:27:23.477Z,16.79
2022-09-17T06:29:52.417Z,16.63
2022-09-17T06:32:21.058Z,16.79
2022-09-17T06:34:49.418Z,17.05
2022-09-17T06:37:19.706Z,17.14
2022-09-17T06:39:54.037Z,17.24
2022-09-17T06:42:21.997Z,17.19
2022-09-17T06:44:49.596Z,17.28
2022-09-17T06:47:18.874Z,17.29
2022-09-17T06:49:46.500Z,17.26
2022-09-17T06:52:14.110Z,17.15
2022-09-17T06:54:41.891Z,17.12
2022-09-17T06:57:09.525Z,17.07
2022-09-17T06:59:37.279Z,16.97
2022-09-17T07:02:05.505Z,16.99
2022-09-17T07:04:34.701Z,16.96
2022-09-17T07:07:02.317Z,16.98
2022-09-17T07:09:30.122Z,16.98
2022-09-17T07:11:57.763Z,16.95
2022-09-17T07:14:25.891Z,17.03
2022-09-17T07:16:53.554Z,17.08
2022-09-17T07:19:21.462Z,17.13
2022-09-17T07:21:50.861Z,17.24
2022-09-17T07:24:18.630Z,17.61
2022-09-17T07:26:46.363Z,18.11
2022-09-17T07:29:13.958Z,18.67
2022-09-17T07:31:41.713Z,19.23
2022-09-17T07:34:09.393Z,19.83
2022-09-17T07:36:50.559Z,20.67
2022-09-17T07:39:18.743Z,21.32
2022-09-17T07:41:46.376Z,21.89
2022-09-17T07:44:14.110Z,22.67
2022-09-17T07:46:41.771Z,23.23
2022-09-17T07:49:09.558Z,23.63
2022-09-17T07:51:37.259Z,24.37
2022-09-17T07:54:07.121Z,25.05
2022-09-17T07:56:34.945Z,25.17
2022-09-17T07:59:03.314Z,24.86
2022-09-17T08:01:33.933Z,24.48
2022-09-17T08:04:01.974Z,24.03
2022-09-17T08:11:57.013Z,24.33
2022-09-17T08:14:29.466Z,25.30
2022-09-17T08:16:57.801Z,25.73
2022-09-17T08:19:25.531Z,25.80
2022-09-17T08:21:53.352Z,26.45
2022-09-17T08:24:21.033Z,27.31
2022-09-17T08:26:50.087Z,27.95
2022-09-17T08:29:17.952Z,28.62
2022-09-17T08:31:45.688Z,29.30
2022-09-17T08:34:14.008Z,29.74
2022-09-17T08:36:41.586Z,30.11
2022-09-17T08:39:11.126Z,30.25
2022-09-17T08:41:51.238Z,30.29
2022-09-17T08:47:21.981Z,30.34
2022-09-17T08:49:51.431Z,30.90
2022-09-17T08:52:37.888Z,31.62
2022-09-17T08:55:09.003Z,31.18
2022-09-17T08:57:41.254Z,30.86
2022-09-17T09:00:11.645Z,30.87
2022-09-17T09:02:47.289Z,31.11
2022-09-17T09:05:16.480Z,31.61
2022-09-17T09:07:45.801Z,31.37
2022-09-17T09:10:16.929Z,30.58
2022-09-17T09:12:45.936Z,29.67
2022-09-17T09:15:30.292Z,29.89
2022-09-17T09:17:58.309Z,30.73
2022-09-17T09:20:44.382Z,31.91
2022-09-17T09:23:15.344Z,31.75
2022-09-17T09:25:46.376Z,31.13
2022-09-17T09:28:31.836Z,30.44
2022-09-17T09:31:03.707Z,30.06
2022-09-17T09:33:31.997Z,30.18
2022-09-17T09:35:59.703Z,31.35
2022-09-17T09:38:32.273Z,32.73
2022-09-17T09:41:03.652Z,32.78
2022-09-17T09:44:02.150Z,32.50
2022-09-17T09:46:32.848Z,31.56
2022-09-17T09:49:06.952Z,31.38
2022-09-17T09:51:39.810Z,31.53
2022-09-17T09:54:20.752Z,31.81
2022-09-17T09:56:58.395Z,33.16
2022-09-17T09:59:27.486Z,33.79
2022-09-17T10:01:55.269Z,34.06
2022-09-17T10:04:23.896Z,33.09
2022-09-17T10:06:53.448Z,31.95
2022-09-17T10:09:22.261Z,31.04
2022-09-17T10:12:03.967Z,30.93
2022-09-17T10:14:33.532Z,30.37
2022-09-17T10:17:21.815Z,29.51
2022-09-17T10:20:22.069Z,28.47
2022-09-17T10:22:50.485Z,27.63
2022-09-17T10:25:24.089Z,27.10
2022-09-17T10:27:51.783Z,26.95
2022-09-17T10:30:20.739Z,27.36
2022-09-17T10:33:09.415Z,28.25
2022-09-17T10:35:37.014Z,28.21
2022-09-17T10:38:04.628Z,28.21
2022-09-17T10:40:33.380Z,28.88
2022-09-17T10:43:23.140Z,30.14
2022-09-17T10:46:01.970Z,30.28
2022-09-17T10:48:31.762Z,30.03
2022-09-17T10:50:59.360Z,29.19
2022-09-17T10:53:30.466Z,28.24
2022-09-17T10:56:07.128Z,27.53
2022-09-17T10:58:42.555Z,27.29
2022-09-17T11:01:19.577Z,27.51
2022-09-17T11:04:21.271Z,27.10
2022-09-17T11:07:06.047Z,26.64
2022-09-17T11:09:39.629Z,25.98
2022-09-17T11:12:22.526Z,25.68
2022-09-17T11:14:51.943Z,25.19
2022-09-17T11:17:33.249Z,24.55
2022-09-17T11:20:02.948Z,25.38
2022-09-17T11:22:45.643Z,28.39
2022-09-17T11:25:24.389Z,32.19
2022-09-17T11:28:05.376Z,35.19
2022-09-17T11:30:34.890Z,34.87
2022-09-17T11:33:20.787Z,35.92
2022-09-17T11:35:49.052Z,37.64
2022-09-17T11:38:19.345Z,36.99
2022-09-17T11:40:48.359Z,35.63
2022-09-17T11:43:20.573Z,33.87
2022-09-17T11:45:54.622Z,31.90
2022-09-17T11:48:25.332Z,30.44
2022-09-17T11:50:54.742Z,28.66
2022-09-17T11:53:24.477Z,27.38
2022-09-17T11:55:53.349Z,26.27
2022-09-17T11:58:25.457Z,25.49
2022-09-17T12:00:54.991Z,24.79
2022-09-17T12:03:26.021Z,24.25
2022-09-17T12:05:55.305Z,24.15
2022-09-17T12:08:24.867Z,24.00
2022-09-17T12:10:54.042Z,23.86
2022-09-17T12:13:28.353Z,23.66
2022-09-17T12:16:05.014Z,23.42
2022-09-17T12:18:43.727Z,22.96
2022-09-17T12:21:11.700Z,22.84
2022-09-17T12:23:42.016Z,22.79
2022-09-17T12:26:23.986Z,22.80
2022-09-17T12:28:54.621Z,22.75
2022-09-17T12:31:24.821Z,22.86
2022-09-17T12:33:55.634Z,22.97
2022-09-17T12:36:32.031Z,23.02
2022-09-17T12:39:32.119Z,23.20
2022-09-17T12:42:03.276Z,23.29
2022-09-17T12:44:59.094Z,23.35
2022-09-17T12:48:10.027Z,23.36
2022-09-17T12:50:45.581Z,23.07
2022-09-17T12:53:20.539Z,22.75
2022-09-17T12:55:56.538Z,22.45
2022-09-17T12:58:29.710Z,22.20
2022-09-17T13:01:01.934Z,21.89
2022-09-17T13:03:31.389Z,22.18
2022-09-17T13:06:18.541Z,22.32
2022-09-17T13:09:13.858Z,22.16
2022-09-17T13:11:55.618Z,22.30
2022-09-17T13:14:26.136Z,22.15
2022-09-17T13:16:55.369Z,21.76
2022-09-17T13:19:29.897Z,21.95
2022-09-17T13:22:02.669Z,21.69
2022-09-17T13:24:31.290Z,21.69
2022-09-17T13:27:00.026Z,21.46
2022-09-17T13:29:59.008Z,21.76
2022-09-17T13:32:46.026Z,21.69
2022-09-17T13:35:51.391Z,21.60
2022-09-17T13:38:23.775Z,21.48
2022-09-17T13:40:52.342Z,21.49
2022-09-17T13:43:24.465Z,21.47
2022-09-17T13:46:18.582Z,21.50
2022-09-17T13:48:50.327Z,21.48
2022-09-17T13:51:44.936Z,21.56
2022-09-17T13:54:14.043Z,21.49
2022-09-17T13:56:45.889Z,21.38
2022-09-17T13:59:14.994Z,21.37
2022-09-17T14:02:19.624Z,21.62
2022-09-17T14:04:52.367Z,21.49
2022-09-17T14:07:35.748Z,21.46
2022-09-17T14:10:26.545Z,21.36
2022-09-17T14:13:26.188Z,21.16
2022-09-17T14:16:02.478Z,20.50
2022-09-17T14:18:43.704Z,20.44
2022-09-17T14:21:16.886Z,19.80
2022-09-17T14:23:45.833Z,19.91
2022-09-17T14:26:20.737Z,19.71
2022-09-17T14:28:51.511Z,19.61
2022-09-17T14:31:19.992Z,19.49
2022-09-17T14:33:47.830Z,19.06
2022-09-17T14:36:17.534Z,19.37
2022-09-17T14:38:46.290Z,19.01
2022-09-17T14:41:22.200Z,19.23
2022-09-17T14:43:52.005Z,19.24
2022-09-17T14:46:22.379Z,19.35
2022-09-17T14:48:50.470Z,19.19
2022-09-17T14:51:29.503Z,19.43
2022-09-17T14:54:22.465Z,19.39
2022-09-17T14:56:57.882Z,19.22
2022-09-17T14:59:47.427Z,19.31
2022-09-17T15:02:32.823Z,19.11
2022-09-17T15:05:01.046Z,19.20
2022-09-17T15:07:28.808Z,19.47
2022-09-17T15:10:07.393Z,19.60
2022-09-17T15:12:35.227Z,19.78
2022-09-17T15:15:04.668Z,19.63
2022-09-17T15:17:33.330Z,20.08
2022-09-17T15:20:01.059Z,20.11
2022-09-17T15:22:29.652Z,19.91
2022-09-17T15:24:57.922Z,20.04
2022-09-17T15:27:27.493Z,19.92
2022-09-17T15:29:56.946Z,19.33
2022-09-17T15:32:25.907Z,19.79
2022-09-17T15:35:25.289Z,19.85
2022-09-17T15:38:18.909Z,19.82
2022-09-17T15:40:41.949Z,19.61
2022-09-17T15:43:16.833Z,19.65
2022-09-17T15:45:44.882Z,19.85
2022-09-17T15:48:25.060Z,19.82
2022-09-17T15:50:53.959Z,20.13
2022-09-17T15:53:26.044Z,20.20
2022-09-17T15:56:02.143Z,20.13
2022-09-17T15:58:32.986Z,19.96
2022-09-17T16:01:41.351Z,20.33
2022-09-17T16:04:18.858Z,20.01
2022-09-17T16:06:59.767Z,20.39
2022-09-17T16:09:43.007Z,20.71
2022-09-17T16:12:13.227Z,20.71
2022-09-17T16:14:49.482Z,20.32
2022-09-17T16:17:35.621Z,20.35
2022-09-17T16:20:10.125Z,20.04
2022-09-17T16:22:38.250Z,19.73
2022-09-17T16:25:06.907Z,19.59
2022-09-17T16:27:39.142Z,18.68
2022-09-17T16:30:09.331Z,19.14
2022-09-17T16:32:36.957Z,18.79
2022-09-17T16:35:05.095Z,18.57
2022-09-17T16:37:34.251Z,18.41
2022-09-17T16:40:02.323Z,18.23
2022-09-17T16:42:31.745Z,18.07
2022-09-17T16:45:01.037Z,17.95
2022-09-17T16:47:30.480Z,17.00
2022-09-17T16:52:25.920Z,17.83
2022-09-17T16:57:22.969Z,17.88
2022-09-17T16:59:50.713Z,17.95
2022-09-17T17:02:18.341Z,17.98
2022-09-17T17:04:46.542Z,17.91
2022-09-17T17:07:14.249Z,18.00
2022-09-17T17:09:41.877Z,17.95
2022-09-17T17:12:09.524Z,17.95
2022-09-17T17:14:38.503Z,17.86
2022-09-17T17:17:06.216Z,17.74
2022-09-17T17:19:34.723Z,17.58
2022-09-17T17:22:02.465Z,17.46
2022-09-17T17:24:31.110Z,17.39
2022-09-17T17:26:58.701Z,17.26
2022-09-17T17:29:26.500Z,17.14
2022-09-17T17:31:55.571Z,17.00
2022-09-17T17:34:23.165Z,16.97
2022-09-17T17:36:50.984Z,16.83
2022-09-17T17:39:18.644Z,16.79
2022-09-17T17:41:51.631Z,16.72
2022-09-17T17:44:19.746Z,16.66
2022-09-17T17:46:47.424Z,16.60
2022-09-17T17:49:16.973Z,16.58
2022-09-17T17:51:45.019Z,16.57
2022-09-17T17:54:12.774Z,16.59
2022-09-17T17:56:40.402Z,16.34
2022-09-17T17:59:07.989Z,16.61
2022-09-17T18:01:35.910Z,16.59
2022-09-17T18:04:05.183Z,16.22
2022-09-17T18:06:34.385Z,16.30
2022-09-17T18:09:02.217Z,16.49
2022-09-17T18:11:30.008Z,16.17
2022-09-17T18:13:58.355Z,16.42
2022-09-17T18:16:26.171Z,16.37
2022-09-17T18:18:53.933Z,16.33
2022-09-17T18:21:22.810Z,16.20
2022-09-17T18:23:51.958Z,16.29
2022-09-17T18:26:20.296Z,16.29
2022-09-17T18:28:48.225Z,16.33
2022-09-17T18:31:20.887Z,16.13
2022-09-17T18:33:48.559Z,16.38
2022-09-17T18:36:16.171Z,16.42
2022-09-17T18:38:43.859Z,16.43
2022-09-17T18:41:13.356Z,16.42
2022-09-17T18:43:41.285Z,15.78
2022-09-17T18:46:09.720Z,16.45
2022-09-17T18:48:37.728Z,16.48
2022-09-17T18:51:06.567Z,16.45
2022-09-17T18:53:36.086Z,16.55
2022-09-17T18:56:05.002Z,16.58
2022-09-17T18:58:33.989Z,16.62
2022-09-17T19:01:01.762Z,16.68
2022-09-17T19:03:31.933Z,16.73
2022-09-17T19:06:00.317Z,16.78
2022-09-17T19:08:29.280Z,16.81
2022-09-17T19:10:58.720Z,16.86
2022-09-17T19:13:26.642Z,16.74
2022-09-17T19:16:00.132Z,16.93
2022-09-17T19:18:27.926Z,16.99
2022-09-17T19:21:00.443Z,16.99
2022-09-17T19:23:28.156Z,16.97
2022-09-17T19:25:55.780Z,17.03
2022-09-17T19:28:23.529Z,17.05
2022-09-17T19:30:51.302Z,16.83
2022-09-17T19:33:20.642Z,17.08
2022-09-17T19:35:50.557Z,17.10
2022-09-17T19:38:18.389Z,17.11
2022-09-17T19:40:55.652Z,17.12
2022-09-17T19:43:23.365Z,17.10
2022-09-17T19:45:51.122Z,17.14
2022-09-17T19:59:00.025Z,17.16
2022-09-17T20:01:27.662Z,17.15
2022-09-17T20:03:57.398Z,17.11
2022-09-17T20:06:25.029Z,17.14
2022-09-17T20:08:53.795Z,16.89
2022-09-17T20:11:22.312Z,17.13
2022-09-17T20:13:52.273Z,17.11
2022-09-17T20:16:22.522Z,17.10
2022-09-17T20:18:50.617Z,16.72
2022-09-17T20:21:18.942Z,17.10
2022-09-17T20:23:46.631Z,17.09
2022-09-17T20:26:14.541Z,17.08
2022-09-17T20:28:42.335Z,17.06
2022-09-17T20:31:12.022Z,17.06
2022-09-17T20:33:41.173Z,17.05
2022-09-17T20:36:10.845Z,16.79
2022-09-17T20:41:27.377Z,17.05
2022-09-17T20:43:55.106Z,17.06
2022-09-17T20:46:28.352Z,17.06
2022-09-17T20:48:58.584Z,17.03
2022-09-17T20:51:27.621Z,17.03
2022-09-17T20:53:56.989Z,17.01
2022-09-17T20:56:25.564Z,17.02
2022-09-17T20:58:54.671Z,16.99
2022-09-17T21:01:23.302Z,16.99
2022-09-17T21:03:51.829Z,16.67
2022-09-17T21:06:22.073Z,16.96
2022-09-17T21:08:49.848Z,16.86
2022-09-17T21:11:17.789Z,16.91
2022-09-17T21:13:45.754Z,16.89
2022-09-17T21:16:14.589Z,16.80
2022-09-17T21:18:42.506Z,16.84
2022-09-17T21:21:11.781Z,16.83
2022-09-17T21:23:41.053Z,16.81
2022-09-17T21:26:09.765Z,16.83
2022-09-17T21:28:37.595Z,16.83
2022-09-17T21:31:06.496Z,16.83
2022-09-17T21:33:35.255Z,16.83
2022-09-17T21:36:04.820Z,16.82
2022-09-17T21:38:32.889Z,16.72
2022-09-17T21:41:02.932Z,16.63
2022-09-17T21:43:30.863Z,16.77
2022-09-17T21:45:59.905Z,16.63
2022-09-17T21:48:27.703Z,16.77
2022-09-17T21:50:55.397Z,16.75
2022-09-17T21:53:23.085Z,16.70
2022-09-17T21:55:50.903Z,16.62
2022-09-17T21:58:20.104Z,16.74
2022-09-17T22:00:49.435Z,16.75
2022-09-17T22:03:20.237Z,16.61
2022-09-17T22:05:47.946Z,16.74
2022-09-17T22:08:15.571Z,16.71
2022-09-17T22:10:43.267Z,16.72
2022-09-17T22:13:10.964Z,16.73
2022-09-17T22:15:40.157Z,16.74
2022-09-17T22:18:12.690Z,16.77
2022-09-17T22:20:43.535Z,16.77
2022-09-17T22:23:11.217Z,16.77
2022-09-17T22:25:38.857Z,16.76
2022-09-17T22:28:20.588Z,16.55
2022-09-17T22:30:50.632Z,16.70
2022-09-17T22:33:18.292Z,16.68
2022-09-17T22:35:46.035Z,16.71
2022-09-17T22:38:13.642Z,16.71
2022-09-17T22:40:42.330Z,16.67
2022-09-17T22:43:09.937Z,16.71
2022-09-17T22:45:37.653Z,16.70
2022-09-17T22:48:06.794Z,16.48
2022-09-17T22:50:34.546Z,16.68
2022-09-17T22:53:02.518Z,16.70
2022-09-17T22:55:30.874Z,16.70
2022-09-17T22:57:58.468Z,16.44
2022-09-17T23:00:26.241Z,16.75
2022-09-17T23:02:53.906Z,16.75
2022-09-17T23:05:23.092Z,16.75
2022-09-17T23:07:50.828Z,16.74
2022-09-17T23:10:18.949Z,16.70
2022-09-17T23:12:46.599Z,16.72
2022-09-17T23:15:14.417Z,16.71
2022-09-17T23:17:43.551Z,16.71
2022-09-17T23:20:12.175Z,16.69
2022-09-17T23:22:41.138Z,16.69
2022-09-17T23:25:10.226Z,16.68
2022-09-17T23:27:37.927Z,16.63
2022-09-17T23:30:06.157Z,16.70
2022-09-17T23:32:33.856Z,16.69
2022-09-17T23:35:01.659Z,16.68
2022-09-17T23:37:29.280Z,16.48
2022-09-17T23:39:58.457Z,16.61
2022-09-17T23:42:26.072Z,16.68
2022-09-17T23:44:53.789Z,16.68
2022-09-17T23:47:21.624Z,16.68
2022-09-17T23:49:49.857Z,16.66
2022-09-17T23:52:17.444Z,16.66
2022-09-17T23:54:45.043Z,16.66
2022-09-17T23:57:14.382Z,16.64
2022-09-17T23:59:41.997Z,16.65
